sensor_id;sensor_type;location;lat;lon;timestamp;pressure;altitude;pressure_sealevel;temperature;humidity
33859;BME280;20156;47.486;12.074;2022-10-31T00:02:02;91676.72;;;9.48;100.00
33859;BME280;20156;47.486;12.074;2022-10-31T00:04:28;91746.78;;;9.10;100.00
33859;BME280;20156;47.486;12.074;2022-10-31T00:06:53;91776.50;;;8.99;100.00
33859;BME280;20156;47.486;12.074;2022-10-31T00:09:18;91748.13;;;9.08;100.00
33859;BME280;20156;47.486;12.074;2022-10-31T00:11:44;91692.19;;;9.20;100.00
33859;BME280;20156;47.486;12.074;2022-10-31T00:14:09;91657.91;;;9.23;100.00
33859;BME280;20156;47.486;12.074;2022-10-31T00:16:35;91652.22;;;9.21;100.00
33859;BME280;20156;47.486;12.074;2022-10-31T00:19:03;91642.63;;;9.22;100.00
33859;BME280;20156;47.486;12.074;2022-10-31T00:21:30;91653.09;;;9.17;100.00
33859;BME280;20156;47.486;12.074;2022-10-31T00:23:57;91709.38;;;8.97;100.00
33859;BME280;20156;47.486;12.074;2022-10-31T00:26:23;91718.03;;;8.88;100.00
33859;BME280;20156;47.486;12.074;2022-10-31T00:28:49;91697.09;;;8.84;100.00
33859;BME280;20156;47.486;12.074;2022-10-31T00:31:16;91620.88;;;9.04;100.00
33859;BME280;20156;47.486;12.074;2022-10-31T00:33:42;91620.63;;;8.87;100.00
33859;BME280;20156;47.486;12.074;2022-10-31T00:36:11;91676.19;;;8.38;100.00
33859;BME280;20156;47.486;12.074;2022-10-31T00:38:37;91678.56;;;8.34;100.00
33859;BME280;20156;47.486;12.074;2022-10-31T00:41:02;91623.50;;;8.66;100.00
33859;BME280;20156;47.486;12.074;2022-10-31T00:43:28;91546.56;;;8.99;100.00
33859;BME280;20156;47.486;12.074;2022-10-31T00:45:53;91503.44;;;9.03;100.00
33859;BME280;20156;47.486;12.074;2022-10-31T00:48:19;91512.56;;;9.01;100.00
33859;BME280;20156;47.486;12.074;2022-10-31T00:50:45;91534.75;;;8.93;100.00
33859;BME280;20156;47.486;12.074;2022-10-31T00:53:10;91588.28;;;8.65;100.00
33859;BME280;20156;47.486;12.074;2022-10-31T00:55:35;91583.31;;;8.69;100.00
33859;BME280;20156;47.486;12.074;2022-10-31T00:58:01;91566.44;;;8.71;100.00
33859;BME280;20156;47.486;12.074;2022-10-31T01:00:26;91544.22;;;8.84;100.00
33859;BME280;20156;47.486;12.074;2022-10-31T01:02:52;91487.13;;;9.03;100.00
33859;BME280;20156;47.486;12.074;2022-10-31T01:05:17;91442.13;;;9.13;100.00
33859;BME280;20156;47.486;12.074;2022-10-31T01:07:43;91403.41;;;9.16;100.00
33859;BME280;20156;47.486;12.074;2022-10-31T01:10:09;91393.63;;;9.13;100.00
33859;BME280;20156;47.486;12.074;2022-10-31T01:12:42;91332.50;;;9.34;100.00
33859;BME280;20156;47.486;12.074;2022-10-31T01:15:10;91332.16;;;9.27;100.00
33859;BME280;20156;47.486;12.074;2022-10-31T01:17:36;91339.53;;;9.20;100.00
33859;BME280;20156;47.486;12.074;2022-10-31T01:20:03;91377.78;;;9.01;100.00
33859;BME280;20156;47.486;12.074;2022-10-31T01:22:28;91372.59;;;9.01;100.00
33859;BME280;20156;47.486;12.074;2022-10-31T01:24:54;91369.44;;;9.04;100.00
33859;BME280;20156;47.486;12.074;2022-10-31T01:27:19;91371.25;;;9.03;100.00
33859;BME280;20156;47.486;12.074;2022-10-31T01:29:45;91418.47;;;8.87;100.00
33859;BME280;20156;47.486;12.074;2022-10-31T01:32:10;91468.47;;;8.73;100.00
33859;BME280;20156;47.486;12.074;2022-10-31T01:34:35;91485.75;;;8.78;100.00
33859;BME280;20156;47.486;12.074;2022-10-31T01:37:01;91521.13;;;8.69;100.00
33859;BME280;20156;47.486;12.074;2022-10-31T01:39:26;91517.97;;;8.72;100.00
33859;BME280;20156;47.486;12.074;2022-10-31T01:41:53;91517.97;;;8.72;100.00
33859;BME280;20156;47.486;12.074;2022-10-31T01:49:27;91495.94;;;8.88;100.00
33859;BME280;20156;47.486;12.074;2022-10-31T01:54:31;91539.25;;;8.69;100.00
33859;BME280;20156;47.486;12.074;2022-10-31T01:56:59;91574.50;;;8.51;100.00
33859;BME280;20156;47.486;12.074;2022-10-31T01:59:29;91628.72;;;8.24;100.00
33859;BME280;20156;47.486;12.074;2022-10-31T02:01:56;91611.41;;;8.43;100.00
33859;BME280;20156;47.486;12.074;2022-10-31T02:04:23;91545.22;;;8.69;100.00
33859;BME280;20156;47.486;12.074;2022-10-31T02:06:57;91540.22;;;8.59;100.00
33859;BME280;20156;47.486;12.074;2022-10-31T02:09:25;91530.94;;;8.53;100.00
33859;BME280;20156;47.486;12.074;2022-10-31T02:11:52;91515.56;;;8.62;100.00
33859;BME280;20156;47.486;12.074;2022-10-31T02:14:25;91537.28;;;8.47;100.00
33859;BME280;20156;47.486;12.074;2022-10-31T02:16:53;91646.69;;;7.91;100.00
33859;BME280;20156;47.486;12.074;2022-10-31T02:24:58;91613.94;;;8.24;100.00
33859;BME280;20156;47.486;12.074;2022-10-31T02:30:31;91568.81;;;8.30;100.00
33859;BME280;20156;47.486;12.074;2022-10-31T02:33:25;91554.28;;;8.34;100.00
33859;BME280;20156;47.486;12.074;2022-10-31T02:44:37;91595.47;;;8.31;100.00
33859;BME280;20156;47.486;12.074;2022-10-31T02:47:16;91601.88;;;8.38;100.00
33859;BME280;20156;47.486;12.074;2022-10-31T02:50:04;91619.66;;;8.45;100.00
33859;BME280;20156;47.486;12.074;2022-10-31T02:52:34;91650.94;;;8.49;100.00
33859;BME280;20156;47.486;12.074;2022-10-31T02:57:52;91730.38;;;8.29;100.00
33859;BME280;20156;47.486;12.074;2022-10-31T03:00:19;91791.63;;;8.15;100.00
33859;BME280;20156;47.486;12.074;2022-10-31T03:13:12;91789.75;;;8.21;100.00
33859;BME280;20156;47.486;12.074;2022-10-31T03:15:50;91849.78;;;7.94;100.00
33859;BME280;20156;47.486;12.074;2022-10-31T03:18:32;91890.53;;;7.78;100.00
33859;BME280;20156;47.486;12.074;2022-10-31T03:21:07;91868.94;;;7.93;100.00
33859;BME280;20156;47.486;12.074;2022-10-31T03:23:35;91879.03;;;7.94;100.00
33859;BME280;20156;47.486;12.074;2022-10-31T03:26:05;91841.41;;;8.07;100.00
33859;BME280;20156;47.486;12.074;2022-10-31T03:28:38;91857.50;;;7.99;100.00
33859;BME280;20156;47.486;12.074;2022-10-31T03:31:07;91856.75;;;7.98;100.00
33859;BME280;20156;47.486;12.074;2022-10-31T03:33:36;91841.97;;;7.99;100.00
33859;BME280;20156;47.486;12.074;2022-10-31T03:36:05;91838.66;;;7.93;100.00
33859;BME280;20156;47.486;12.074;2022-10-31T03:38:35;91841.25;;;7.93;100.00
33859;BME280;20156;47.486;12.074;2022-10-31T03:41:03;91818.13;;;8.02;100.00
33859;BME280;20156;47.486;12.074;2022-10-31T03:43:33;91777.09;;;8.19;100.00
33859;BME280;20156;47.486;12.074;2022-10-31T03:46:02;91774.06;;;8.12;100.00
33859;BME280;20156;47.486;12.074;2022-10-31T03:48:28;91789.91;;;8.05;100.00
33859;BME280;20156;47.486;12.074;2022-10-31T03:51:07;91785.50;;;8.06;100.00
33859;BME280;20156;47.486;12.074;2022-10-31T03:53:44;91819.25;;;7.96;100.00
33859;BME280;20156;47.486;12.074;2022-10-31T03:56:36;91823.53;;;8.05;100.00
33859;BME280;20156;47.486;12.074;2022-10-31T03:59:17;91824.84;;;8.08;100.00
33859;BME280;20156;47.486;12.074;2022-10-31T04:01:47;91863.13;;;8.06;100.00
33859;BME280;20156;47.486;12.074;2022-10-31T04:04:14;91897.97;;;7.90;100.00
33859;BME280;20156;47.486;12.074;2022-10-31T04:06:42;91974.19;;;7.53;100.00
33859;BME280;20156;47.486;12.074;2022-10-31T04:09:09;91988.16;;;7.52;100.00
33859;BME280;20156;47.486;12.074;2022-10-31T04:11:48;91970.81;;;7.58;100.00
33859;BME280;20156;47.486;12.074;2022-10-31T04:14:15;91915.13;;;7.75;100.00
33859;BME280;20156;47.486;12.074;2022-10-31T04:16:42;91878.03;;;7.90;100.00
33859;BME280;20156;47.486;12.074;2022-10-31T04:19:09;91961.38;;;7.28;100.00
33859;BME280;20156;47.486;12.074;2022-10-31T04:21:35;91965.22;;;7.40;100.00
33859;BME280;20156;47.486;12.074;2022-10-31T04:24:00;91935.59;;;7.67;100.00
33859;BME280;20156;47.486;12.074;2022-10-31T04:26:25;91952.69;;;7.63;100.00
33859;BME280;20156;47.486;12.074;2022-10-31T04:28:51;91979.41;;;7.43;100.00
33859;BME280;20156;47.486;12.074;2022-10-31T04:31:17;91995.19;;;7.41;100.00
33859;BME280;20156;47.486;12.074;2022-10-31T04:33:42;91971.88;;;7.51;100.00
33859;BME280;20156;47.486;12.074;2022-10-31T04:36:08;91957.13;;;7.57;100.00
33859;BME280;20156;47.486;12.074;2022-10-31T04:38:34;91920.31;;;7.70;100.00
33859;BME280;20156;47.486;12.074;2022-10-31T04:40:59;91953.00;;;7.51;100.00
33859;BME280;20156;47.486;12.074;2022-10-31T04:43:25;91918.56;;;7.61;100.00
33859;BME280;20156;47.486;12.074;2022-10-31T04:45:50;91902.22;;;7.65;100.00
33859;BME280;20156;47.486;12.074;2022-10-31T04:48:16;91881.22;;;7.77;100.00
33859;BME280;20156;47.486;12.074;2022-10-31T04:50:41;91900.38;;;7.71;100.00
33859;BME280;20156;47.486;12.074;2022-10-31T04:53:07;91967.31;;;7.28;100.00
33859;BME280;20156;47.486;12.074;2022-10-31T04:55:32;92011.28;;;7.18;100.00
33859;BME280;20156;47.486;12.074;2022-10-31T04:57:58;92042.53;;;7.16;100.00
33859;BME280;20156;47.486;12.074;2022-10-31T05:00:24;92010.47;;;7.33;100.00
33859;BME280;20156;47.486;12.074;2022-10-31T05:02:51;91995.97;;;7.37;100.00
33859;BME280;20156;47.486;12.074;2022-10-31T05:05:19;91949.94;;;7.44;100.00
33859;BME280;20156;47.486;12.074;2022-10-31T05:07:46;91915.75;;;7.52;100.00
33859;BME280;20156;47.486;12.074;2022-10-31T05:10:14;91883.41;;;7.54;100.00
33859;BME280;20156;47.486;12.074;2022-10-31T05:12:51;91855.72;;;7.60;100.00
33859;BME280;20156;47.486;12.074;2022-10-31T05:15:18;91880.97;;;7.29;100.00
33859;BME280;20156;47.486;12.074;2022-10-31T05:17:44;91909.69;;;7.22;100.00
33859;BME280;20156;47.486;12.074;2022-10-31T05:20:12;91952.66;;;6.98;100.00
33859;BME280;20156;47.486;12.074;2022-10-31T05:22:45;91955.22;;;7.03;100.00
33859;BME280;20156;47.486;12.074;2022-10-31T05:25:11;91907.34;;;7.21;100.00
33859;BME280;20156;47.486;12.074;2022-10-31T05:27:41;91873.16;;;7.39;100.00
33859;BME280;20156;47.486;12.074;2022-10-31T05:30:08;91844.47;;;7.41;100.00
33859;BME280;20156;47.486;12.074;2022-10-31T05:32:41;91828.63;;;7.47;100.00
33859;BME280;20156;47.486;12.074;2022-10-31T05:35:09;91820.38;;;7.45;100.00
33859;BME280;20156;47.486;12.074;2022-10-31T05:37:35;91804.78;;;7.55;100.00
33859;BME280;20156;47.486;12.074;2022-10-31T05:40:02;91867.31;;;7.18;100.00
33859;BME280;20156;47.486;12.074;2022-10-31T05:42:28;91925.03;;;6.93;100.00
33859;BME280;20156;47.486;12.074;2022-10-31T05:44:53;91928.59;;;7.03;100.00
33859;BME280;20156;47.486;12.074;2022-10-31T05:47:18;91929.13;;;7.10;100.00
33859;BME280;20156;47.486;12.074;2022-10-31T05:49:44;91916.91;;;7.20;100.00
33859;BME280;20156;47.486;12.074;2022-10-31T05:52:09;91920.53;;;7.24;100.00
33859;BME280;20156;47.486;12.074;2022-10-31T05:54:34;91932.69;;;7.19;100.00
33859;BME280;20156;47.486;12.074;2022-10-31T05:57:00;91949.00;;;7.09;100.00
33859;BME280;20156;47.486;12.074;2022-10-31T05:59:25;91932.69;;;7.19;100.00
33859;BME280;20156;47.486;12.074;2022-10-31T06:01:51;91923.91;;;7.25;100.00
33859;BME280;20156;47.486;12.074;2022-10-31T06:04:16;91890.72;;;7.42;100.00
33859;BME280;20156;47.486;12.074;2022-10-31T06:06:41;91896.16;;;7.36;100.00
33859;BME280;20156;47.486;12.074;2022-10-31T06:09:07;91911.97;;;7.29;100.00
33859;BME280;20156;47.486;12.074;2022-10-31T06:11:32;91900.56;;;7.40;100.00
33859;BME280;20156;47.486;12.074;2022-10-31T06:13:58;91915.56;;;7.33;100.00
33859;BME280;20156;47.486;12.074;2022-10-31T06:16:23;91947.38;;;7.34;100.00
33859;BME280;20156;47.486;12.074;2022-10-31T06:18:48;91997.84;;;7.11;100.00
33859;BME280;20156;47.486;12.074;2022-10-31T06:21:14;92015.94;;;7.16;100.00
33859;BME280;20156;47.486;12.074;2022-10-31T06:23:39;92038.44;;;7.10;100.00
33859;BME280;20156;47.486;12.074;2022-10-31T06:26:05;92036.09;;;7.24;100.00
33859;BME280;20156;47.486;12.074;2022-10-31T06:28:30;92032.97;;;7.32;100.00
33859;BME280;20156;47.486;12.074;2022-10-31T06:30:55;92040.19;;;7.30;100.00
33859;BME280;20156;47.486;12.074;2022-10-31T06:33:21;92054.16;;;7.29;100.00
33859;BME280;20156;47.486;12.074;2022-10-31T06:35:47;92076.41;;;7.30;100.00
33859;BME280;20156;47.486;12.074;2022-10-31T06:38:13;92067.31;;;7.38;100.00
33859;BME280;20156;47.486;12.074;2022-10-31T06:40:39;92052.31;;;7.50;100.00
33859;BME280;20156;47.486;12.074;2022-10-31T06:43:04;92032.91;;;7.58;100.00
33859;BME280;20156;47.486;12.074;2022-10-31T06:45:30;92017.63;;;7.61;100.00
33859;BME280;20156;47.486;12.074;2022-10-31T06:47:56;92078.47;;;7.23;100.00
33859;BME280;20156;47.486;12.074;2022-10-31T06:50:22;92106.41;;;7.11;100.00
33859;BME280;20156;47.486;12.074;2022-10-31T06:52:52;92061.91;;;7.39;100.00
33859;BME280;20156;47.486;12.074;2022-10-31T06:55:19;92091.13;;;7.30;100.00
33859;BME280;20156;47.486;12.074;2022-10-31T06:57:59;92061.84;;;7.54;100.00
33859;BME280;20156;47.486;12.074;2022-10-31T07:00:26;92053.56;;;7.63;100.00
33859;BME280;20156;47.486;12.074;2022-10-31T07:02:57;92052.25;;;7.65;100.00
33859;BME280;20156;47.486;12.074;2022-10-31T07:05:23;92020.34;;;7.85;100.00
33859;BME280;20156;47.486;12.074;2022-10-31T07:07:56;92007.41;;;7.90;100.00
33859;BME280;20156;47.486;12.074;2022-10-31T07:10:23;91980.94;;;8.03;100.00
33859;BME280;20156;47.486;12.074;2022-10-31T07:12:57;91981.19;;;8.02;100.00
33859;BME280;20156;47.486;12.074;2022-10-31T07:15:23;91982.78;;;7.98;100.00
33859;BME280;20156;47.486;12.074;2022-10-31T07:17:49;91967.47;;;8.06;100.00
33859;BME280;20156;47.486;12.074;2022-10-31T07:20:15;91991.13;;;7.90;100.00
33859;BME280;20156;47.486;12.074;2022-10-31T07:22:40;91968.25;;;8.07;100.00
33859;BME280;20156;47.486;12.074;2022-10-31T07:25:06;91926.19;;;8.25;100.00
33859;BME280;20156;47.486;12.074;2022-10-31T07:27:41;91917.59;;;8.30;100.00
33859;BME280;20156;47.486;12.074;2022-10-31T07:30:09;91881.50;;;8.43;100.00
33859;BME280;20156;47.486;12.074;2022-10-31T07:35:04;91884.19;;;8.28;100.00
33859;BME280;20156;47.486;12.074;2022-10-31T07:37:30;91839.69;;;8.55;100.00
33859;BME280;20156;47.486;12.074;2022-10-31T07:39:55;91842.28;;;8.55;100.00
33859;BME280;20156;47.486;12.074;2022-10-31T07:42:21;91860.81;;;8.38;100.00
33859;BME280;20156;47.486;12.074;2022-10-31T07:44:47;91829.44;;;8.69;100.00
33859;BME280;20156;47.486;12.074;2022-10-31T07:47:13;91813.41;;;8.67;100.00
33859;BME280;20156;47.486;12.074;2022-10-31T07:49:38;91843.31;;;8.54;100.00
33859;BME280;20156;47.486;12.074;2022-10-31T07:52:04;91827.34;;;8.71;100.00
33859;BME280;20156;47.486;12.074;2022-10-31T07:54:29;91847.38;;;8.65;100.00
33859;BME280;20156;47.486;12.074;2022-10-31T07:56:54;91860.03;;;8.67;100.00
33859;BME280;20156;47.486;12.074;2022-10-31T07:59:20;91821.59;;;8.98;100.00
33859;BME280;20156;47.486;12.074;2022-10-31T08:01:45;91815.03;;;9.05;100.00
33859;BME280;20156;47.486;12.074;2022-10-31T08:04:11;91847.63;;;8.88;100.00
33859;BME280;20156;47.486;12.074;2022-10-31T08:06:36;91877.16;;;8.92;100.00
33859;BME280;20156;47.486;12.074;2022-10-31T08:09:01;91927.22;;;8.87;100.00
33859;BME280;20156;47.486;12.074;2022-10-31T08:11:27;91977.00;;;8.84;100.00
33859;BME280;20156;47.486;12.074;2022-10-31T08:13:52;91982.53;;;9.01;100.00
33859;BME280;20156;47.486;12.074;2022-10-31T08:16:18;92012.59;;;9.02;100.00
33859;BME280;20156;47.486;12.074;2022-10-31T08:18:43;92039.81;;;9.05;100.00
33859;BME280;20156;47.486;12.074;2022-10-31T08:21:08;92048.81;;;9.13;100.00
33859;BME280;20156;47.486;12.074;2022-10-31T08:23:34;92082.81;;;9.11;100.00
33859;BME280;20156;47.486;12.074;2022-10-31T08:26:00;92099.63;;;9.14;100.00
33859;BME280;20156;47.486;12.074;2022-10-31T08:28:25;92123.47;;;9.16;100.00
33859;BME280;20156;47.486;12.074;2022-10-31T08:30:51;92140.09;;;9.15;100.00
33859;BME280;20156;47.486;12.074;2022-10-31T08:33:17;92161.06;;;9.18;100.00
33859;BME280;20156;47.486;12.074;2022-10-31T08:35:44;92175.75;;;9.33;100.00
33859;BME280;20156;47.486;12.074;2022-10-31T08:38:11;92181.31;;;9.50;100.00
33859;BME280;20156;47.486;12.074;2022-10-31T08:40:37;92205.88;;;9.63;100.00
33859;BME280;20156;47.486;12.074;2022-10-31T08:43:15;92232.97;;;9.81;100.00
33859;BME280;20156;47.486;12.074;2022-10-31T08:45:41;92258.41;;;10.13;100.00
33859;BME280;20156;47.486;12.074;2022-10-31T08:48:10;92308.03;;;10.45;100.00
33859;BME280;20156;47.486;12.074;2022-10-31T08:50:36;92369.84;;;10.77;100.00
33859;BME280;20156;47.486;12.074;2022-10-31T08:53:07;92432.28;;;11.01;100.00
33859;BME280;20156;47.486;12.074;2022-10-31T08:55:37;92500.56;;;11.17;100.00
33859;BME280;20156;47.486;12.074;2022-10-31T08:58:04;92500.63;;;11.65;100.00
33859;BME280;20156;47.486;12.074;2022-10-31T09:00:30;92514.50;;;11.84;100.00
33859;BME280;20156;47.486;12.074;2022-10-31T09:03:04;92552.69;;;12.18;100.00
33859;BME280;20156;47.486;12.074;2022-10-31T09:05:30;92579.66;;;12.51;100.00
33859;BME280;20156;47.486;12.074;2022-10-31T09:08:00;92720.63;;;12.59;100.00
33859;BME280;20156;47.486;12.074;2022-10-31T09:10:27;92777.00;;;12.55;100.00
33859;BME280;20156;47.486;12.074;2022-10-31T09:13:13;92758.09;;;12.69;100.00
33859;BME280;20156;47.486;12.074;2022-10-31T09:15:41;92803.66;;;12.76;100.00
33859;BME280;20156;47.486;12.074;2022-10-31T09:18:08;92876.84;;;12.90;100.00
33859;BME280;20156;47.486;12.074;2022-10-31T09:20:35;92910.69;;;13.00;100.00
33859;BME280;20156;47.486;12.074;2022-10-31T09:23:09;92992.75;;;13.23;100.00
33859;BME280;20156;47.486;12.074;2022-10-31T09:25:35;93030.78;;;13.34;100.00
33859;BME280;20156;47.486;12.074;2022-10-31T09:28:02;93083.19;;;13.43;100.00
33859;BME280;20156;47.486;12.074;2022-10-31T09:30:30;93163.59;;;13.51;100.00
33859;BME280;20156;47.486;12.074;2022-10-31T09:33:01;93226.66;;;13.73;100.00
33859;BME280;20156;47.486;12.074;2022-10-31T09:35:27;93294.25;;;13.90;100.00
33859;BME280;20156;47.486;12.074;2022-10-31T09:38:04;93369.44;;;14.08;100.00
33859;BME280;20156;47.486;12.074;2022-10-31T09:48:37;93450.72;;;15.05;100.00
33859;BME280;20156;47.486;12.074;2022-10-31T09:51:08;93508.38;;;15.34;100.00
33859;BME280;20156;47.486;12.074;2022-10-31T09:54:08;93567.78;;;15.44;100.00
33859;BME280;20156;47.486;12.074;2022-10-31T09:56:36;93730.31;;;15.39;100.00
33859;BME280;20156;47.486;12.074;2022-10-31T09:59:05;93821.19;;;15.59;100.00
33859;BME280;20156;47.486;12.074;2022-10-31T10:01:55;93885.66;;;15.70;100.00
33859;BME280;20156;47.486;12.074;2022-10-31T10:06:56;93973.75;;;15.81;100.00
33859;BME280;20156;47.486;12.074;2022-10-31T10:09:25;93956.91;;;15.92;100.00
33859;BME280;20156;47.486;12.074;2022-10-31T10:14:44;93889.31;;;16.29;100.00
33859;BME280;20156;47.486;12.074;2022-10-31T10:25:38;94263.88;;;16.79;100.00
33859;BME280;20156;47.486;12.074;2022-10-31T10:28:35;94316.94;;;17.01;100.00
33859;BME280;20156;47.486;12.074;2022-10-31T10:31:10;94356.03;;;17.28;100.00
33859;BME280;20156;47.486;12.074;2022-10-31T10:36:27;94458.31;;;17.40;100.00
33859;BME280;20156;47.486;12.074;2022-10-31T10:39:02;94445.97;;;17.40;100.00
33859;BME280;20156;47.486;12.074;2022-10-31T10:41:31;94511.16;;;17.23;100.00
33859;BME280;20156;47.486;12.074;2022-10-31T10:43:57;94476.72;;;17.30;100.00
33859;BME280;20156;47.486;12.074;2022-10-31T10:49:42;94418.06;;;17.44;100.00
33859;BME280;20156;47.486;12.074;2022-10-31T10:55:05;94528.78;;;17.18;100.00
33859;BME280;20156;47.486;12.074;2022-10-31T10:57:55;94490.13;;;17.03;100.00
33859;BME280;20156;47.486;12.074;2022-10-31T11:00:30;94455.94;;;17.08;100.00
33859;BME280;20156;47.486;12.074;2022-10-31T11:02:56;94495.94;;;17.15;100.00
33859;BME280;20156;47.486;12.074;2022-10-31T11:05:43;94477.78;;;17.13;100.00
33859;BME280;20156;47.486;12.074;2022-10-31T11:08:10;94468.59;;;17.16;100.00
33859;BME280;20156;47.486;12.074;2022-10-31T11:10:36;94437.28;;;17.35;100.00
33859;BME280;20156;47.486;12.074;2022-10-31T11:16:03;94455.69;;;17.30;100.00
33859;BME280;20156;47.486;12.074;2022-10-31T11:18:31;94437.81;;;17.42;100.00
33859;BME280;20156;47.486;12.074;2022-10-31T11:21:01;94432.28;;;17.43;100.00
33859;BME280;20156;47.486;12.074;2022-10-31T11:23:28;94379.41;;;17.55;100.00
33859;BME280;20156;47.486;12.074;2022-10-31T11:26:03;94404.41;;;17.48;100.00
33859;BME280;20156;47.486;12.074;2022-10-31T11:28:30;94452.81;;;17.36;100.00
33859;BME280;20156;47.486;12.074;2022-10-31T11:31:05;94439.66;;;17.36;100.00
33859;BME280;20156;47.486;12.074;2022-10-31T11:33:35;94453.84;;;17.45;100.00
33859;BME280;20156;47.486;12.074;2022-10-31T11:36:14;94448.59;;;17.51;100.00
33859;BME280;20156;47.486;12.074;2022-10-31T11:38:42;94426.75;;;17.50;100.00
33859;BME280;20156;47.486;12.074;2022-10-31T11:41:14;94427.53;;;17.56;100.00
33859;BME280;20156;47.486;12.074;2022-10-31T11:43:55;94382.00;;;17.65;100.00
33859;BME280;20156;47.486;12.074;2022-10-31T11:46:41;94369.66;;;17.71;100.00
33859;BME280;20156;47.486;12.074;2022-10-31T11:51:48;94337.56;;;17.64;100.00
33859;BME280;20156;47.486;12.074;2022-10-31T11:54:22;94346.97;;;17.85;100.00
33859;BME280;20156;47.486;12.074;2022-10-31T11:56:48;94293.00;;;17.88;100.00
33859;BME280;20156;47.486;12.074;2022-10-31T11:59:30;94268.53;;;17.87;100.00
33859;BME280;20156;47.486;12.074;2022-10-31T12:01:58;94193.56;;;17.80;100.00
33859;BME280;20156;47.486;12.074;2022-10-31T12:04:32;94187.22;;;17.86;100.00
33859;BME280;20156;47.486;12.074;2022-10-31T12:07:00;94191.47;;;17.82;100.00
33859;BME280;20156;47.486;12.074;2022-10-31T12:09:28;94188.56;;;17.83;100.00
33859;BME280;20156;47.486;12.074;2022-10-31T12:12:17;94181.47;;;17.79;100.00
33859;BME280;20156;47.486;12.074;2022-10-31T12:15:11;94202.47;;;17.89;100.00
33859;BME280;20156;47.486;12.074;2022-10-31T12:18:01;94176.53;;;17.72;100.00
33859;BME280;20156;47.486;12.074;2022-10-31T12:28:54;94061.00;;;17.76;100.00
33859;BME280;20156;47.486;12.074;2022-10-31T12:37:09;94079.78;;;17.59;100.00
33859;BME280;20156;47.486;12.074;2022-10-31T12:45:57;94063.34;;;17.77;100.00
33859;BME280;20156;47.486;12.074;2022-10-31T12:59:35;93891.88;;;17.94;100.00
33859;BME280;20156;47.486;12.074;2022-10-31T13:02:18;93927.59;;;17.76;100.00
33859;BME280;20156;47.486;12.074;2022-10-31T13:05:05;93859.09;;;17.86;100.00
33859;BME280;20156;47.486;12.074;2022-10-31T13:10:24;93964.66;;;17.80;100.00
33859;BME280;20156;47.486;12.074;2022-10-31T13:12:54;93823.09;;;17.82;100.00
33859;BME280;20156;47.486;12.074;2022-10-31T13:15:26;94020.69;;;17.80;100.00
33859;BME280;20156;47.486;12.074;2022-10-31T13:17:55;94081.19;;;17.85;100.00
33859;BME280;20156;47.486;12.074;2022-10-31T13:20:38;94099.59;;;17.85;100.00
33859;BME280;20156;47.486;12.074;2022-10-31T13:23:22;94030.00;;;17.72;100.00
33859;BME280;20156;47.486;12.074;2022-10-31T13:25:54;93910.19;;;17.80;100.00
33859;BME280;20156;47.486;12.074;2022-10-31T13:28:44;93718.88;;;17.62;100.00
33859;BME280;20156;47.486;12.074;2022-10-31T13:31:11;93668.97;;;17.57;100.00
33859;BME280;20156;47.486;12.074;2022-10-31T13:33:39;93756.38;;;17.72;100.00
33859;BME280;20156;47.486;12.074;2022-10-31T13:36:24;93817.28;;;17.85;100.00
33859;BME280;20156;47.486;12.074;2022-10-31T13:38:57;93885.63;;;17.90;100.00
33859;BME280;20156;47.486;12.074;2022-10-31T13:41:35;93870.69;;;17.85;100.00
33859;BME280;20156;47.486;12.074;2022-10-31T13:44:14;93722.97;;;17.73;100.00
33859;BME280;20156;47.486;12.074;2022-10-31T13:46:43;93735.53;;;17.76;100.00
33859;BME280;20156;47.486;12.074;2022-10-31T13:49:25;93876.13;;;17.70;100.00
33859;BME280;20156;47.486;12.074;2022-10-31T13:51:51;93925.38;;;17.59;100.00
33859;BME280;20156;47.486;12.074;2022-10-31T13:54:23;93848.97;;;17.74;100.00
33859;BME280;20156;47.486;12.074;2022-10-31T13:59:49;93710.16;;;17.66;100.00
33859;BME280;20156;47.486;12.074;2022-10-31T14:02:17;93575.50;;;17.64;100.00
33859;BME280;20156;47.486;12.074;2022-10-31T14:04:50;93542.13;;;17.79;100.00
33859;BME280;20156;47.486;12.074;2022-10-31T14:07:20;93567.72;;;17.92;100.00
33859;BME280;20156;47.486;12.074;2022-10-31T14:12:36;93762.06;;;18.36;100.00
33859;BME280;20156;47.486;12.074;2022-10-31T14:15:22;93864.47;;;18.56;100.00
33859;BME280;20156;47.486;12.074;2022-10-31T14:17:57;93858.50;;;18.70;100.00
33859;BME280;20156;47.486;12.074;2022-10-31T14:20:44;93894.66;;;18.83;100.00
33859;BME280;20156;47.486;12.074;2022-10-31T14:23:34;94031.06;;;18.91;100.00
33859;BME280;20156;47.486;12.074;2022-10-31T14:28:34;93884.38;;;18.62;100.00
33859;BME280;20156;47.486;12.074;2022-10-31T14:31:00;93893.88;;;18.63;100.00
33859;BME280;20156;47.486;12.074;2022-10-31T14:33:30;93887.59;;;18.59;100.00
33859;BME280;20156;47.486;12.074;2022-10-31T14:36:36;93757.66;;;18.31;100.00
33859;BME280;20156;47.486;12.074;2022-10-31T14:39:14;93699.38;;;18.19;100.00
33859;BME280;20156;47.486;12.074;2022-10-31T14:47:26;93901.72;;;18.07;100.00
33859;BME280;20156;47.486;12.074;2022-10-31T14:52:45;93639.69;;;17.63;100.00
33859;BME280;20156;47.486;12.074;2022-10-31T14:55:13;93626.22;;;17.51;100.00
33859;BME280;20156;47.486;12.074;2022-10-31T14:57:45;93638.63;;;17.45;100.00
33859;BME280;20156;47.486;12.074;2022-10-31T15:00:18;93615.97;;;17.31;100.00
33859;BME280;20156;47.486;12.074;2022-10-31T15:03:09;93411.47;;;16.81;100.00
33859;BME280;20156;47.486;12.074;2022-10-31T15:05:51;93266.22;;;16.67;100.00
33859;BME280;20156;47.486;12.074;2022-10-31T15:08:43;93200.81;;;16.52;100.00